createdAt,value
2023-04-30T00:01:19.004Z,11.04
2023-04-30T00:03:47.806Z,11.03
2023-04-30T00:06:16.034Z,11.02
2023-04-30T00:08:43.572Z,11.04
2023-04-30T00:11:11.375Z,11.08
2023-04-30T00:13:39.214Z,11.14
2023-04-30T00:16:06.769Z,11.17
2023-04-30T00:18:34.609Z,11.12
2023-04-30T00:21:02.138Z,11.00
2023-04-30T00:23:29.665Z,10.97
2023-04-30T00:25:57.365Z,10.95
2023-04-30T00:28:25.149Z,10.94
2023-04-30T00:30:53.270Z,10.97
2023-04-30T00:33:21.269Z,10.99
2023-04-30T00:35:48.760Z,10.99
2023-04-30T00:38:16.283Z,11.00
2023-04-30T00:40:44.472Z,11.01
2023-04-30T00:43:11.959Z,11.03
2023-04-30T00:45:39.424Z,11.01
2023-04-30T00:48:07.908Z,11.00
2023-04-30T00:50:36.589Z,10.92
2023-04-30T00:53:04.421Z,10.97
2023-04-30T00:55:32.328Z,11.00
2023-04-30T00:58:00.921Z,11.00
2023-04-30T01:00:28.774Z,10.96
2023-04-30T01:02:57.049Z,10.92
2023-04-30T01:05:24.771Z,10.86
2023-04-30T01:07:53.336Z,10.80
2023-04-30T01:10:23.298Z,10.69
2023-04-30T01:12:57.154Z,10.74
2023-04-30T01:15:29.505Z,10.72
2023-04-30T01:18:09.221Z,10.79
2023-04-30T01:20:39.746Z,10.77
2023-04-30T01:23:27.967Z,10.72
2023-04-30T01:26:13.355Z,10.72
2023-04-30T01:28:43.529Z,10.67
2023-04-30T01:31:13.803Z,10.63
2023-04-30T01:33:41.493Z,10.64
2023-04-30T01:36:17.772Z,10.66
2023-04-30T01:38:50.970Z,10.45
2023-04-30T01:41:38.617Z,10.49
2023-04-30T01:44:18.423Z,10.54
2023-04-30T01:47:06.465Z,10.49
2023-04-30T01:49:40.151Z,10.32
2023-04-30T01:52:15.639Z,10.39
2023-04-30T01:55:33.696Z,10.51
2023-04-30T01:58:03.760Z,10.56
2023-04-30T02:00:31.898Z,10.63
2023-04-30T02:03:00.485Z,10.73
2023-04-30T02:05:28.121Z,10.81
2023-04-30T02:07:56.676Z,10.86
2023-04-30T02:10:26.424Z,10.89
2023-04-30T02:12:54.144Z,10.83
2023-04-30T02:15:21.762Z,10.72
2023-04-30T02:17:49.612Z,10.38
2023-04-30T02:20:17.316Z,10.32
2023-04-30T02:22:45.097Z,10.43
2023-04-30T02:25:14.192Z,10.56
2023-04-30T02:27:41.705Z,10.65
2023-04-30T02:30:10.718Z,10.67
2023-04-30T02:32:39.043Z,10.79
2023-04-30T02:35:06.705Z,10.76
2023-04-30T02:37:34.243Z,10.74
2023-04-30T02:40:02.090Z,10.69
2023-04-30T02:42:29.830Z,10.71
2023-04-30T02:44:57.351Z,10.82
2023-04-30T02:47:25.260Z,10.79
2023-04-30T02:49:53.131Z,10.81
2023-04-30T02:52:20.775Z,10.81
2023-04-30T02:54:48.767Z,10.76
2023-04-30T02:57:16.588Z,10.80
2023-04-30T02:59:46.295Z,10.85
2023-04-30T03:02:14.620Z,10.74
2023-04-30T03:04:42.236Z,10.70
2023-04-30T03:07:09.704Z,10.64
2023-04-30T03:09:37.683Z,10.69
2023-04-30T03:12:05.831Z,10.72
2023-04-30T03:14:33.329Z,10.80
2023-04-30T03:17:01.122Z,10.82
2023-04-30T03:19:28.983Z,10.83
2023-04-30T03:21:56.765Z,10.84
2023-04-30T03:24:25.248Z,10.87
2023-04-30T03:26:52.736Z,10.79
2023-04-30T03:29:20.318Z,10.95
2023-04-30T03:31:48.281Z,11.01
2023-04-30T03:34:16.204Z,11.04
2023-04-30T03:36:43.685Z,11.02
2023-04-30T03:39:12.049Z,10.99
2023-04-30T03:41:39.577Z,11.02
2023-04-30T03:44:08.799Z,11.01
2023-04-30T03:46:36.691Z,10.97
2023-04-30T03:49:04.360Z,10.99
2023-04-30T03:51:31.941Z,11.06
2023-04-30T03:53:59.870Z,10.91
2023-04-30T03:56:27.376Z,10.91
2023-04-30T03:58:55.034Z,10.97
2023-04-30T04:01:23.221Z,11.01
2023-04-30T04:03:51.421Z,11.05
2023-04-30T04:06:18.985Z,11.06
2023-04-30T04:08:46.878Z,11.04
2023-04-30T04:11:14.951Z,11.06
2023-04-30T04:13:42.468Z,11.04
2023-04-30T04:16:09.905Z,10.99
2023-04-30T04:18:38.132Z,10.98
2023-04-30T04:21:06.754Z,10.89
2023-04-30T04:23:34.780Z,11.02
2023-04-30T04:26:03.126Z,11.04
2023-04-30T04:28:31.219Z,11.03
2023-04-30T04:30:59.629Z,11.11
2023-04-30T04:33:27.886Z,11.07
2023-04-30T04:35:57.883Z,11.10
2023-04-30T04:38:26.235Z,11.12
2023-04-30T04:40:54.605Z,11.13
2023-04-30T04:43:22.395Z,11.22
2023-04-30T04:45:49.990Z,11.27
2023-04-30T04:48:18.151Z,11.28
2023-04-30T04:50:45.642Z,11.29
2023-04-30T04:53:14.091Z,11.26
2023-04-30T04:55:41.762Z,11.26
2023-04-30T04:58:09.358Z,11.23
2023-04-30T05:00:37.588Z,11.16
2023-04-30T05:03:05.547Z,11.24
2023-04-30T05:05:33.075Z,11.23
2023-04-30T05:08:00.754Z,11.25
2023-04-30T05:10:28.757Z,11.28
2023-04-30T05:12:56.409Z,11.35
2023-04-30T05:15:24.063Z,11.37
2023-04-30T05:17:51.813Z,11.37
2023-04-30T05:20:19.384Z,11.43
2023-04-30T05:22:46.865Z,11.42
2023-04-30T05:25:14.667Z,11.46
2023-04-30T05:27:42.182Z,11.50
2023-04-30T05:30:10.514Z,11.52
2023-04-30T05:32:38.665Z,11.59
2023-04-30T05:35:06.743Z,11.67
2023-04-30T05:37:34.205Z,11.77
2023-04-30T05:40:02.018Z,11.89
2023-04-30T05:42:29.551Z,11.89
2023-04-30T05:44:57.149Z,11.97
2023-04-30T05:47:24.970Z,11.98
2023-04-30T05:49:52.837Z,11.92
2023-04-30T05:52:20.634Z,11.98
2023-04-30T05:54:50.064Z,12.02
2023-04-30T05:57:17.776Z,12.21
2023-04-30T05:59:45.419Z,12.28
2023-04-30T06:02:13.338Z,12.11
2023-04-30T06:04:41.265Z,12.26
2023-04-30T06:07:08.715Z,12.66
2023-04-30T06:09:36.417Z,12.92
2023-04-30T06:12:04.499Z,13.15
2023-04-30T06:14:32.151Z,13.65
2023-04-30T06:16:59.655Z,13.93
2023-04-30T06:19:27.550Z,14.07
2023-04-30T06:21:55.014Z,14.23
2023-04-30T06:24:22.743Z,14.24
2023-04-30T06:26:50.708Z,14.49
2023-04-30T06:29:18.185Z,14.29
2023-04-30T06:31:45.836Z,14.41
2023-04-30T06:34:13.963Z,14.07
2023-04-30T06:36:41.456Z,14.40
2023-04-30T06:39:08.973Z,14.26
2023-04-30T06:41:36.753Z,14.31
2023-04-30T06:44:07.287Z,14.56
2023-04-30T06:46:35.062Z,14.50
2023-04-30T06:49:02.952Z,14.78
2023-04-30T06:51:31.060Z,14.91
2023-04-30T06:53:58.685Z,15.16
2023-04-30T06:56:26.730Z,15.34
2023-04-30T06:58:54.664Z,15.45
2023-04-30T07:01:22.280Z,15.45
2023-04-30T07:03:52.432Z,15.23
2023-04-30T07:06:20.846Z,15.36
2023-04-30T07:08:48.967Z,15.30
2023-04-30T07:11:16.931Z,15.32
2023-04-30T07:13:44.451Z,15.31
2023-04-30T07:16:12.121Z,15.82
2023-04-30T07:18:40.912Z,15.47
2023-04-30T07:21:08.719Z,15.76
2023-04-30T07:23:36.477Z,15.81
2023-04-30T07:26:04.264Z,15.81
2023-04-30T07:28:31.726Z,16.11
2023-04-30T07:31:00.327Z,16.11
2023-04-30T07:33:28.208Z,16.09
2023-04-30T07:35:57.041Z,16.08
2023-04-30T07:38:25.305Z,16.30
2023-04-30T07:40:53.099Z,15.98
2023-04-30T07:43:21.080Z,16.23
2023-04-30T07:45:49.988Z,16.50
2023-04-30T07:48:18.055Z,16.69
2023-04-30T07:50:52.658Z,16.63
2023-04-30T07:53:20.843Z,16.76
2023-04-30T07:55:48.377Z,16.58
2023-04-30T07:58:15.858Z,17.37
2023-04-30T08:00:43.574Z,17.29
2023-04-30T08:03:12.306Z,17.17
2023-04-30T08:05:41.412Z,17.29
2023-04-30T08:08:08.950Z,17.24
2023-04-30T08:10:37.329Z,17.46
2023-04-30T08:13:05.687Z,17.44
2023-04-30T08:15:36.389Z,17.58
2023-04-30T08:18:05.859Z,17.43
2023-04-30T08:20:34.549Z,17.77
2023-04-30T08:23:03.643Z,17.86
2023-04-30T08:25:31.950Z,17.90
2023-04-30T08:27:59.794Z,18.31
2023-04-30T08:30:27.446Z,17.96
2023-04-30T08:32:57.501Z,18.09
2023-04-30T08:35:25.666Z,18.91
2023-04-30T08:37:54.096Z,18.66
2023-04-30T08:40:23.566Z,18.56
2023-04-30T08:43:09.120Z,18.54
2023-04-30T08:45:37.173Z,19.17
2023-04-30T08:48:06.858Z,19.00
2023-04-30T08:50:35.116Z,18.66
2023-04-30T08:53:03.495Z,18.84
2023-04-30T08:55:34.079Z,18.69
2023-04-30T08:58:01.789Z,19.10
2023-04-30T09:00:32.358Z,18.77
2023-04-30T09:03:01.278Z,19.62
2023-04-30T09:05:29.500Z,20.40
2023-04-30T09:10:32.615Z,19.63
2023-04-30T09:13:04.203Z,19.42
2023-04-30T09:15:33.353Z,19.69
2023-04-30T09:18:17.479Z,19.72
2023-04-30T09:20:58.578Z,19.91
2023-04-30T09:23:26.187Z,20.12
2023-04-30T09:25:54.116Z,20.66
2023-04-30T09:28:27.388Z,20.14
2023-04-30T09:30:58.333Z,20.11
2023-04-30T09:33:26.288Z,21.45
2023-04-30T09:35:53.864Z,22.03
2023-04-30T09:38:32.636Z,20.58
2023-04-30T09:41:01.264Z,19.51
2023-04-30T09:43:29.831Z,19.68
2023-04-30T09:45:59.147Z,19.92
2023-04-30T09:48:30.449Z,20.13
2023-04-30T09:50:58.260Z,20.35
2023-04-30T09:53:26.633Z,20.66
2023-04-30T09:55:55.294Z,20.49
2023-04-30T09:58:28.236Z,20.61
2023-04-30T10:00:58.463Z,21.16
2023-04-30T10:03:26.564Z,20.16
2023-04-30T10:05:54.279Z,20.24
2023-04-30T10:08:26.875Z,20.32
2023-04-30T10:10:59.601Z,19.96
2023-04-30T10:13:31.438Z,20.24
2023-04-30T10:16:01.820Z,19.99
2023-04-30T10:18:33.111Z,20.07
2023-04-30T10:21:04.025Z,19.96
2023-04-30T10:23:31.517Z,19.62
2023-04-30T10:25:58.930Z,19.55
2023-04-30T10:28:27.189Z,20.06
2023-04-30T10:30:54.955Z,20.63
2023-04-30T10:33:31.806Z,20.61
2023-04-30T10:36:01.204Z,20.77
2023-04-30T10:38:30.978Z,20.76
2023-04-30T10:41:02.400Z,20.14
2023-04-30T10:43:31.115Z,19.97
2023-04-30T10:45:59.365Z,19.83
2023-04-30T10:48:27.486Z,19.97
2023-04-30T10:50:58.914Z,20.34
2023-04-30T10:53:28.935Z,20.87
2023-04-30T10:56:09.261Z,21.19
2023-04-30T10:58:39.441Z,21.19
2023-04-30T11:01:15.731Z,22.11
2023-04-30T11:04:05.859Z,21.74
2023-04-30T11:07:03.728Z,22.25
2023-04-30T11:09:57.384Z,21.61
2023-04-30T11:12:29.942Z,21.22
2023-04-30T11:15:13.487Z,21.38
2023-04-30T11:17:41.311Z,21.13
2023-04-30T11:20:12.948Z,20.74
2023-04-30T11:22:41.154Z,20.40
2023-04-30T11:25:10.613Z,20.47
2023-04-30T11:27:42.084Z,20.69
2023-04-30T11:30:15.472Z,20.41
2023-04-30T11:32:49.876Z,21.29
2023-04-30T11:35:19.601Z,21.31
2023-04-30T11:37:48.431Z,21.31
2023-04-30T11:40:16.058Z,21.77
2023-04-30T11:42:46.072Z,22.78
2023-04-30T11:45:20.695Z,22.04
2023-04-30T11:47:50.445Z,21.34
2023-04-30T11:50:27.562Z,21.17
2023-04-30T11:52:57.374Z,20.90
2023-04-30T11:55:26.238Z,20.77
2023-04-30T11:57:56.606Z,21.07
2023-04-30T12:00:31.637Z,21.08
2023-04-30T12:03:02.482Z,20.86
2023-04-30T12:05:30.433Z,21.23
2023-04-30T12:08:07.868Z,21.35
2023-04-30T12:10:36.186Z,21.80
2023-04-30T12:13:03.696Z,20.95
2023-04-30T12:15:33.092Z,21.21
2023-04-30T12:18:15.329Z,20.66
2023-04-30T12:20:43.159Z,21.37
2023-04-30T12:23:10.947Z,22.65
2023-04-30T12:25:45.682Z,22.10
2023-04-30T12:28:13.919Z,22.18
2023-04-30T12:30:43.322Z,21.84
2023-04-30T12:33:11.314Z,22.21
2023-04-30T12:35:43.134Z,22.56
2023-04-30T12:38:10.722Z,22.30
2023-04-30T12:40:38.293Z,22.16
2023-04-30T12:43:08.049Z,22.05
2023-04-30T12:45:55.904Z,21.40
2023-04-30T12:48:25.062Z,21.17
2023-04-30T12:50:58.816Z,21.71
2023-04-30T12:53:27.468Z,22.52
2023-04-30T12:56:09.443Z,22.94
2023-04-30T12:58:38.813Z,22.49
2023-04-30T13:01:11.237Z,22.98
2023-04-30T13:03:39.427Z,22.61
2023-04-30T13:06:07.509Z,22.24
2023-04-30T13:08:45.756Z,21.57
2023-04-30T13:11:22.938Z,22.11
2023-04-30T13:13:50.678Z,22.55
2023-04-30T13:16:19.418Z,22.53
2023-04-30T13:18:47.207Z,22.73
2023-04-30T13:21:14.646Z,22.38
2023-04-30T13:23:51.950Z,22.29
2023-04-30T13:26:23.337Z,21.57
2023-04-30T13:28:51.511Z,21.48
2023-04-30T13:31:19.407Z,21.86
2023-04-30T13:33:47.370Z,21.13
2023-04-30T13:36:15.513Z,21.62
2023-04-30T13:38:43.352Z,21.25
2023-04-30T13:41:11.285Z,21.33
2023-04-30T13:43:42.125Z,21.35
2023-04-30T13:46:10.300Z,21.70
2023-04-30T13:48:38.325Z,21.87
2023-04-30T13:51:05.858Z,21.75
2023-04-30T13:53:33.422Z,21.27
2023-04-30T13:56:01.176Z,21.40
2023-04-30T13:58:28.742Z,20.90
2023-04-30T14:00:56.533Z,21.09
2023-04-30T14:03:24.599Z,21.03
2023-04-30T14:05:52.160Z,20.73
2023-04-30T14:08:21.232Z,20.81
2023-04-30T14:10:51.073Z,20.76
2023-04-30T14:13:18.780Z,20.62
2023-04-30T14:15:47.846Z,20.68
2023-04-30T14:18:15.677Z,20.41
2023-04-30T14:20:43.327Z,20.69
2023-04-30T14:23:10.965Z,20.67
2023-04-30T14:25:38.791Z,20.44
2023-04-30T14:28:06.324Z,20.87
2023-04-30T14:30:33.883Z,20.13
2023-04-30T14:33:01.784Z,20.83
2023-04-30T14:35:29.416Z,21.19
2023-04-30T14:37:57.147Z,21.04
2023-04-30T14:40:24.872Z,20.60
2023-04-30T14:42:52.663Z,20.36
2023-04-30T14:45:20.476Z,19.96
2023-04-30T14:47:48.631Z,19.98
2023-04-30T14:50:16.395Z,20.35
2023-04-30T14:52:44.001Z,20.43
2023-04-30T14:55:12.042Z,20.00
2023-04-30T14:57:39.687Z,20.23
2023-04-30T15:00:07.981Z,20.19
2023-04-30T15:02:36.386Z,19.93
2023-04-30T15:05:08.360Z,20.21
2023-04-30T15:07:36.898Z,20.06
2023-04-30T15:10:06.623Z,19.01
2023-04-30T15:12:35.633Z,18.90
2023-04-30T15:15:04.745Z,19.17
2023-04-30T15:17:34.857Z,18.71
2023-04-30T15:20:04.697Z,18.83
2023-04-30T15:22:33.328Z,18.68
2023-04-30T15:25:00.991Z,18.70
2023-04-30T15:27:28.810Z,18.96
2023-04-30T15:29:56.565Z,19.23
2023-04-30T15:32:24.569Z,18.99
2023-04-30T15:34:52.254Z,19.29
2023-04-30T15:37:19.765Z,19.67
2023-04-30T15:39:48.390Z,20.09
2023-04-30T15:42:17.577Z,20.40
2023-04-30T15:44:45.076Z,20.17
2023-04-30T15:47:12.730Z,19.41
2023-04-30T15:49:40.777Z,19.09
2023-04-30T15:52:08.522Z,19.11
2023-04-30T15:54:36.120Z,18.99
2023-04-30T15:57:04.057Z,18.76
2023-04-30T15:59:31.558Z,18.76
2023-04-30T16:01:59.665Z,18.67
2023-04-30T16:04:27.997Z,18.89
2023-04-30T16:06:57.104Z,19.00
2023-04-30T16:09:24.678Z,19.11
2023-04-30T16:11:52.692Z,19.56
2023-04-30T16:14:20.722Z,19.56
2023-04-30T16:16:48.285Z,19.51
2023-04-30T16:19:17.146Z,19.78
2023-04-30T16:21:44.965Z,19.99
2023-04-30T16:24:12.816Z,19.84
2023-04-30T16:26:40.533Z,20.25
2023-04-30T16:29:09.133Z,20.24
2023-04-30T16:31:36.908Z,20.34
2023-04-30T16:34:04.699Z,20.04
2023-04-30T16:36:32.812Z,20.21
2023-04-30T16:39:00.370Z,19.88
2023-04-30T16:41:28.144Z,20.20
2023-04-30T16:43:55.820Z,19.81
2023-04-30T16:46:23.292Z,19.81
2023-04-30T16:48:51.133Z,19.79
2023-04-30T16:51:18.780Z,19.54
2023-04-30T16:53:46.467Z,19.72
2023-04-30T16:56:14.373Z,19.22
2023-04-30T16:58:41.852Z,19.23
2023-04-30T17:01:09.432Z,19.15
2023-04-30T17:03:37.574Z,19.00
2023-04-30T17:06:06.513Z,18.95
2023-04-30T17:08:34.462Z,19.03
2023-04-30T17:11:02.372Z,18.93
2023-04-30T17:13:32.200Z,19.15
2023-04-30T17:16:02.025Z,18.99
2023-04-30T17:18:29.990Z,19.00
2023-04-30T17:20:57.512Z,18.94
2023-04-30T17:23:25.693Z,18.59
2023-04-30T17:25:53.798Z,18.33
2023-04-30T17:28:21.823Z,18.33
2023-04-30T17:30:49.991Z,18.27
2023-04-30T17:33:18.174Z,18.14
2023-04-30T17:35:46.016Z,17.85
2023-04-30T17:38:13.755Z,17.68
2023-04-30T17:40:42.007Z,17.58
2023-04-30T17:43:09.771Z,17.37
2023-04-30T17:45:37.271Z,17.29
2023-04-30T17:48:05.145Z,17.32
2023-04-30T17:50:32.650Z,17.18
2023-04-30T17:53:00.822Z,17.14
2023-04-30T17:55:28.932Z,17.09
2023-04-30T17:57:57.228Z,16.88
2023-04-30T18:00:25.196Z,16.88
2023-04-30T18:02:53.518Z,16.84
2023-04-30T18:05:21.449Z,16.62
2023-04-30T18:07:49.073Z,16.67
2023-04-30T18:10:17.665Z,16.63
2023-04-30T18:12:54.048Z,16.54
2023-04-30T18:15:22.093Z,16.47
2023-04-30T18:17:49.624Z,16.47
2023-04-30T18:20:17.130Z,16.42
2023-04-30T18:22:45.026Z,16.34
2023-04-30T18:25:13.532Z,16.35
2023-04-30T18:27:41.034Z,16.27
2023-04-30T18:30:10.161Z,16.20
2023-04-30T18:32:38.185Z,16.15
2023-04-30T18:35:06.413Z,16.08
2023-04-30T18:37:34.146Z,16.12
2023-04-30T18:40:02.431Z,16.11
2023-04-30T18:42:30.243Z,16.08
2023-04-30T18:44:58.398Z,15.98
2023-04-30T18:47:26.045Z,15.92
2023-04-30T18:49:53.653Z,15.88
2023-04-30T18:52:22.796Z,15.89
2023-04-30T18:54:51.115Z,15.83
2023-04-30T18:57:18.680Z,15.81
2023-04-30T18:59:47.628Z,15.80
2023-04-30T19:02:15.621Z,15.75
2023-04-30T19:04:43.375Z,15.59
2023-04-30T19:07:12.038Z,15.57
2023-04-30T19:09:39.722Z,15.55
2023-04-30T19:12:07.564Z,15.47
2023-04-30T19:14:35.540Z,15.50
2023-04-30T19:17:03.633Z,15.41
2023-04-30T19:19:31.260Z,15.29
2023-04-30T19:21:59.310Z,15.26
2023-04-30T19:24:26.989Z,15.20
2023-04-30T19:26:55.342Z,15.18
2023-04-30T19:29:24.567Z,15.02
2023-04-30T19:31:52.696Z,15.01
2023-04-30T19:34:20.451Z,15.05
2023-04-30T19:36:49.079Z,14.92
2023-04-30T19:39:16.942Z,14.85
2023-04-30T19:41:45.697Z,14.91
2023-04-30T19:44:15.223Z,14.79
2023-04-30T19:46:43.257Z,14.92
2023-04-30T19:49:11.452Z,14.94
2023-04-30T19:51:39.747Z,14.88
2023-04-30T19:54:10.489Z,14.89
2023-04-30T19:56:38.181Z,14.82
2023-04-30T19:59:06.271Z,14.78
2023-04-30T20:01:34.465Z,14.76
2023-04-30T20:04:06.847Z,14.74
2023-04-30T20:06:34.579Z,14.55
2023-04-30T20:09:02.524Z,14.22
2023-04-30T20:11:30.512Z,14.25
2023-04-30T20:13:58.360Z,14.17
2023-04-30T20:16:26.428Z,14.09
2023-04-30T20:18:54.226Z,14.19
2023-04-30T20:21:24.446Z,14.22
2023-04-30T20:23:52.433Z,14.25
2023-04-30T20:26:21.477Z,14.29
2023-04-30T20:28:49.245Z,14.23
2023-04-30T20:31:17.151Z,14.14
2023-04-30T20:33:44.980Z,13.95
2023-04-30T20:36:12.480Z,13.98
2023-04-30T20:38:41.644Z,14.07
2023-04-30T20:41:10.197Z,14.03
2023-04-30T20:43:38.218Z,13.92
2023-04-30T20:46:06.485Z,13.88
2023-04-30T20:48:34.106Z,13.80
2023-04-30T20:51:01.753Z,13.73
2023-04-30T20:53:29.583Z,13.83
2023-04-30T20:56:00.195Z,13.78
2023-04-30T20:58:28.786Z,13.70
2023-04-30T21:00:56.854Z,13.74
2023-04-30T21:03:24.644Z,13.66
2023-04-30T21:05:52.340Z,13.65
2023-04-30T21:08:20.062Z,13.55
2023-04-30T21:10:48.054Z,13.59
2023-04-30T21:13:15.544Z,13.58
2023-04-30T21:15:43.367Z,13.51
2023-04-30T21:18:11.524Z,13.47
2023-04-30T21:20:39.128Z,13.43
2023-04-30T21:23:07.430Z,13.36
2023-04-30T21:25:37.565Z,13.37
2023-04-30T21:28:05.194Z,13.36
2023-04-30T21:30:32.995Z,13.33
2023-04-30T21:33:00.683Z,13.26
2023-04-30T21:35:30.280Z,13.29
2023-04-30T21:37:58.048Z,13.21
2023-04-30T21:40:25.702Z,13.27
2023-04-30T21:42:53.261Z,13.20
2023-04-30T21:45:21.037Z,13.15
2023-04-30T21:47:48.882Z,13.13
2023-04-30T21:50:17.017Z,13.14
2023-04-30T21:52:44.850Z,13.09
2023-04-30T21:55:12.362Z,12.99
2023-04-30T21:57:39.909Z,13.01
2023-04-30T22:00:14.403Z,12.95
2023-04-30T22:02:48.897Z,12.93
2023-04-30T22:05:20.983Z,12.92
2023-04-30T22:07:48.702Z,12.83
2023-04-30T22:10:16.411Z,12.83
2023-04-30T22:12:47.353Z,12.81
2023-04-30T22:15:15.562Z,12.75
2023-04-30T22:17:43.206Z,12.66
2023-04-30T22:20:11.581Z,12.56
2023-04-30T22:22:43.446Z,12.65
2023-04-30T22:25:11.462Z,12.63
2023-04-30T22:27:39.100Z,12.63
2023-04-30T22:30:07.481Z,12.64
2023-04-30T22:32:35.558Z,12.56
2023-04-30T22:35:03.738Z,12.53
2023-04-30T22:37:31.447Z,12.49
2023-04-30T22:39:59.472Z,12.50
2023-04-30T22:42:27.019Z,12.44
2023-04-30T22:44:54.844Z,12.44
2023-04-30T22:47:22.726Z,12.40
2023-04-30T22:49:50.388Z,12.35
2023-04-30T22:52:18.242Z,12.22
2023-04-30T22:54:47.199Z,12.24
2023-04-30T22:57:14.639Z,12.20
2023-04-30T22:59:42.406Z,12.13
2023-04-30T23:02:10.470Z,12.09
2023-04-30T23:04:38.023Z,12.02
2023-04-30T23:07:05.862Z,12.05
2023-04-30T23:09:33.939Z,11.97
2023-04-30T23:12:02.111Z,11.95
2023-04-30T23:14:29.934Z,11.99
2023-04-30T23:16:57.789Z,11.96
2023-04-30T23:19:25.472Z,11.85
2023-04-30T23:21:53.383Z,11.90
2023-04-30T23:24:21.090Z,11.83
2023-04-30T23:26:48.682Z,11.80
2023-04-30T23:29:16.446Z,11.84
2023-04-30T23:31:44.728Z,11.81
2023-04-30T23:34:12.556Z,11.76
2023-04-30T23:36:40.142Z,11.76
2023-04-30T23:39:08.207Z,11.74
2023-04-30T23:41:36.126Z,11.65
2023-04-30T23:44:03.874Z,11.65
2023-04-30T23:46:32.344Z,11.60
2023-04-30T23:49:00.020Z,11.55
2023-04-30T23:51:27.784Z,11.51
2023-04-30T23:53:55.614Z,11.48
2023-04-30T23:56:23.910Z,11.48
2023-04-30T23:58:51.624Z,11.50
